Normand Flipper — 9V6929 — position and weather

sailwx.info

Track history (hours):
 
Tides and Currents Weather Stations Pressure Air Temp Water Temp Dewpoint Dewpoint Depression Visibility Wind Speed Wind Dir Waves Ship Positions

Normand Flipper

Last reported at 2017-Jul-23 15:25 UTC. Time now 2017-Jul-23 22:43 UTC.
Position N 57°26' W 001°36'.

Length 89 m; draft 4.9 m.

Type: Other ship. MMSI: 566522000.

Date/timePositionNaut miles runAvg speedWind from/ knotsBaromVisibWave heightAir tempDewpointWater temp
2017-Jul-23 15:25N 57°26' W 001°36'4 9.9
2017-Jul-23 15:00N 57°28' W 001°43'3 5.4
2017-Jul-23 14:31N 57°30' W 001°47'0 0.0
2017-Jul-23 14:00N 57°30' W 001°47'0 0.0
2017-Jul-23 13:30N 57°30' W 001°47'0 0.0
2017-Jul-23 13:01N 57°30' W 001°47'0 0.0
2017-Jul-23 12:28N 57°30' W 001°47'0 0.0
2017-Jul-23 12:00N 57°30' W 001°47'0 0.0
2017-Jul-23 11:28N 57°30' W 001°47'0 0.0
2017-Jul-23 11:01N 57°30' W 001°47'0 0.0
2017-Jul-23 10:31N 57°30' W 001°47'0 0.0
2017-Jul-23 10:00N 57°30' W 001°47'0 0.0
2017-Jul-23 09:31N 57°30' W 001°47'0 0.0
2017-Jul-23 09:00N 57°30' W 001°47'0 0.0
2017-Jul-23 08:30N 57°30' W 001°47'0 0.0
2017-Jul-23 08:00N 57°30' W 001°47'0 0.0
2017-Jul-23 07:31N 57°30' W 001°47'0 0.0
2017-Jul-23 06:54N 57°30' W 001°47'0 0.0
2017-Jul-23 06:30N 57°30' W 001°47'0 0.0
2017-Jul-23 06:01N 57°30' W 001°47'0 0.0
2017-Jul-23 05:31N 57°30' W 001°47'0 0.0
2017-Jul-23 05:00N 57°30' W 001°47'0 0.0
2017-Jul-23 04:30N 57°30' W 001°47'0 0.0
2017-Jul-23 04:01N 57°30' W 001°47'0 0.0
2017-Jul-23 03:31N 57°30' W 001°47'0 0.0
2017-Jul-23 03:00N 57°30' W 001°47'0 0.0
2017-Jul-23 02:30N 57°30' W 001°47'0 0.0
2017-Jul-23 02:00N 57°30' W 001°47'0 0.0
2017-Jul-23 01:18N 57°30' W 001°47'0 0.0
2017-Jul-23 01:00N 57°30' W 001°47'0 0.0
2017-Jul-23 00:30N 57°30' W 001°47'0 0.0
2017-Jul-23 00:01N 57°30' W 001°47'0 0.0
2017-Jul-22 23:27N 57°30' W 001°47'0 0.0
2017-Jul-22 23:00N 57°30' W 001°47'0 0.0
2017-Jul-22 22:30N 57°30' W 001°47'0 0.0
2017-Jul-22 22:00N 57°30' W 001°47'0 0.0
2017-Jul-22 21:30N 57°30' W 001°47'0 0.0
2017-Jul-22 20:57N 57°30' W 001°47'0 0.0
2017-Jul-22 20:30N 57°30' W 001°47'0 0.0
2017-Jul-22 20:01N 57°30' W 001°47'2 3.6
2017-Jul-22 19:31N 57°30' W 001°44'3 5.5
2017-Jul-22 19:01N 57°32' W 001°40'2 0.2
2017-Jul-22 08:57N 57°33' W 001°37'410.1
2017-Jul-22 08:31N 57°31' W 001°44'2 4.4
2017-Jul-22 08:01N 57°30' W 001°47'0 0.0
2017-Jul-22 07:31N 57°30' W 001°47'0 0.0
2017-Jul-22 06:59N 57°30' W 001°47'0 0.0
2017-Jul-22 06:26N 57°30' W 001°47'0 0.0
2017-Jul-22 05:59N 57°30' W 001°47'0 0.0
2017-Jul-22 05:28N 57°30' W 001°47'0 0.0
2017-Jul-22 04:58N 57°30' W 001°47'0 0.0
2017-Jul-22 04:28N 57°30' W 001°47'0 0.0
2017-Jul-22 03:59N 57°30' W 001°47'0 0.0
2017-Jul-22 03:29N 57°30' W 001°47'0 0.0
2017-Jul-22 02:58N 57°30' W 001°47'0 0.0
2017-Jul-22 02:29N 57°30' W 001°47'0 0.0
2017-Jul-22 02:00N 57°30' W 001°47'0 0.7
2017-Jul-22 01:31N 57°30' W 001°47'2 4.1
2017-Jul-22 01:00N 57°29' W 001°43'0 0.1
2017-Jul-22 00:30N 57°29' W 001°43'0 0.0
2017-Jul-22 00:00N 57°29' W 001°43'0 0.0
2017-Jul-21 23:30N 57°29' W 001°43'0 0.0
2017-Jul-21 23:00N 57°29' W 001°43'0 0.1
2017-Jul-21 22:30N 57°29' W 001°43'0 0.0
2017-Jul-21 22:00N 57°29' W 001°43'0 0.0
2017-Jul-21 21:30N 57°29' W 001°43'0 0.0
2017-Jul-21 21:00N 57°29' W 001°43'0 0.0
2017-Jul-21 20:30N 57°29' W 001°43'0 0.0
2017-Jul-21 20:00N 57°29' W 001°43'0 0.0
2017-Jul-21 19:30N 57°29' W 001°43'0 0.0
2017-Jul-21 19:00N 57°29' W 001°43'0 0.0
2017-Jul-21 18:30N 57°29' W 001°43'0 0.0
2017-Jul-21 18:00N 57°29' W 001°43'0 0.0
2017-Jul-21 17:30N 57°29' W 001°43'0 0.0
2017-Jul-21 17:00N 57°29' W 001°43'0 0.0
2017-Jul-21 16:30N 57°29' W 001°43'0 0.0
2017-Jul-21 16:00N 57°29' W 001°43'0 0.0
2017-Jul-21 15:30N 57°29' W 001°43'0 0.0
2017-Jul-21 15:00N 57°29' W 001°43'0 0.0
2017-Jul-21 14:30N 57°29' W 001°43'0 0.0
2017-Jul-21 14:00N 57°29' W 001°43'0 0.0
2017-Jul-21 13:30N 57°29' W 001°43'0 0.0
2017-Jul-21 13:00N 57°29' W 001°43'0 0.0
2017-Jul-21 12:30N 57°29' W 001°43'0 0.0
2017-Jul-21 12:00N 57°29' W 001°43'0 0.0
2017-Jul-21 11:30N 57°29' W 001°43'0 0.0
2017-Jul-21 10:59N 57°29' W 001°43'0 0.0
2017-Jul-21 10:30N 57°29' W 001°43'0 0.8
2017-Jul-21 10:00N 57°29' W 001°44'2 3.9
2017-Jul-21 09:30N 57°30' W 001°47'0 0.0
2017-Jul-21 08:54N 57°30' W 001°47'0 0.0
2017-Jul-21 08:30N 57°30' W 001°47'0 0.0
2017-Jul-21 07:57N 57°30' W 001°47'0 0.0
2017-Jul-21 07:30N 57°30' W 001°47'0 0.0
2017-Jul-21 06:57N 57°30' W 001°47'0 0.0
2017-Jul-21 06:30N 57°30' W 001°47'0 0.0
2017-Jul-21 05:54N 57°30' W 001°47'0 0.0
2017-Jul-21 05:27N 57°30' W 001°47'0 0.0
2017-Jul-21 04:48N 57°30' W 001°47'0 0.0
2017-Jul-21 04:30N 57°30' W 001°47'0 0.0
2017-Jul-21 04:00N 57°30' W 001°47'2 4.1
2017-Jul-21 03:29N 57°29' W 001°43'1 2.6
2017-Jul-21 03:00N 57°29' W 001°41'0 0.5
2017-Jul-21 02:30N 57°29' W 001°41'0 0.0
2017-Jul-21 01:59N 57°29' W 001°41'92 2.7
2017-Jul-19 15:16N 57°11' E 001°06'0 0.0
2017-Jul-19 14:50N 57°11' E 001°06'0 0.0
2017-Jul-19 13:06N 57°11' E 001°06'0 0.0
2017-Jul-19 13:00N 57°11' E 001°06'36 2.3
2017-Jul-18 21:27N 57°17' E 000°01'612.7
2017-Jul-18 21:00N 57°18' W 000°09'612.8
2017-Jul-18 20:30N 57°19' W 000°21'1912.9
2017-Jul-18 19:02N 57°23' W 000°55'112.8
2017-Jul-18 18:59N 57°23' W 000°56'2012.8
2017-Jul-18 17:24N 57°28' W 001°33'512.8
2017-Jul-18 17:00N 57°29' W 001°42'3 5.4
2017-Jul-18 16:30N 57°30' W 001°47'0 0.0
2017-Jul-18 15:58N 57°30' W 001°47'0 0.0
2017-Jul-18 15:28N 57°30' W 001°47'0 0.0
2017-Jul-18 14:58N 57°30' W 001°47'0 0.0
2017-Jul-18 13:55N 57°30' W 001°47'0 0.0
2017-Jul-18 13:28N 57°30' W 001°47'0 0.0
2017-Jul-18 12:58N 57°30' W 001°47'0 0.0
2017-Jul-18 12:28N 57°30' W 001°47'0 0.0
2017-Jul-18 11:55N 57°30' W 001°47'0 0.0
2017-Jul-18 11:28N 57°30' W 001°47'0 0.0
2017-Jul-18 10:58N 57°30' W 001°47'0 0.0
2017-Jul-18 10:28N 57°30' W 001°47'0 0.0
2017-Jul-18 09:58N 57°30' W 001°47'0 0.0
2017-Jul-18 09:28N 57°30' W 001°47'1 1.2
2017-Jul-18 08:58N 57°30' W 001°46'0 0.0
2017-Jul-18 08:28N 57°30' W 001°46'0 0.0
2017-Jul-18 07:58N 57°30' W 001°46'0 0.0
2017-Jul-18 07:28N 57°30' W 001°46'0 0.0
2017-Jul-18 06:58N 57°30' W 001°46'0 0.0
2017-Jul-18 06:28N 57°30' W 001°46'0 0.0
2017-Jul-18 05:58N 57°30' W 001°46'0 0.0
2017-Jul-18 05:28N 57°30' W 001°46'0 0.0
2017-Jul-18 04:58N 57°30' W 001°46'0 0.0
2017-Jul-18 04:28N 57°30' W 001°46'0 0.0
2017-Jul-18 03:58N 57°30' W 001°46'0 0.0
2017-Jul-18 03:28N 57°30' W 001°46'0 0.0
2017-Jul-18 02:58N 57°30' W 001°46'0 0.0
2017-Jul-18 02:28N 57°30' W 001°46'0 0.0
2017-Jul-18 01:58N 57°30' W 001°46'0 0.0
2017-Jul-18 01:28N 57°30' W 001°46'0 0.0
2017-Jul-18 00:58N 57°30' W 001°46'0 0.0
2017-Jul-18 00:28N 57°30' W 001°46'0 0.0
2017-Jul-17 23:58N 57°30' W 001°46'0 0.0
2017-Jul-17 23:28N 57°30' W 001°46'0 0.0
2017-Jul-17 22:58N 57°30' W 001°46'0 0.0
2017-Jul-17 22:28N 57°30' W 001°46'0 0.0
2017-Jul-17 21:58N 57°30' W 001°46'0 0.0
2017-Jul-17 21:28N 57°30' W 001°46'0 0.0
2017-Jul-17 20:58N 57°30' W 001°46'0 0.0
2017-Jul-17 20:25N 57°30' W 001°46'0 0.0
2017-Jul-17 19:55N 57°30' W 001°46'0 0.0
2017-Jul-17 19:28N 57°30' W 001°46'0 0.0
2017-Jul-17 18:58N 57°30' W 001°46'0 0.0
2017-Jul-17 18:28N 57°30' W 001°46'0 0.0
2017-Jul-17 17:58N 57°30' W 001°46'0 0.3
2017-Jul-17 17:31N 57°30' W 001°47'0 0.9
2017-Jul-17 17:00N 57°30' W 001°47'0 0.0
2017-Jul-17 16:28N 57°30' W 001°47'0 0.0
2017-Jul-17 15:58N 57°30' W 001°47'0 0.0
2017-Jul-17 15:28N 57°30' W 001°47'0 0.0
2017-Jul-17 14:58N 57°30' W 001°47'0 0.0
2017-Jul-17 14:22N 57°30' W 001°47'0 0.0
2017-Jul-17 13:58N 57°30' W 001°47'0 0.0
2017-Jul-17 13:22N 57°30' W 001°47'0 0.0
2017-Jul-17 12:58N 57°30' W 001°47'0 0.0
2017-Jul-17 12:28N 57°30' W 001°47'0 0.0
2017-Jul-17 11:58N 57°30' W 001°47'0 0.0
2017-Jul-17 11:28N 57°30' W 001°47'0 0.0
2017-Jul-17 10:58N 57°30' W 001°47'0 0.0
2017-Jul-17 10:28N 57°30' W 001°47'0 0.0
2017-Jul-17 09:58N 57°30' W 001°47'0 0.0
2017-Jul-17 09:28N 57°30' W 001°47'0 0.0
2017-Jul-17 08:58N 57°30' W 001°47'0 0.0
2017-Jul-17 08:28N 57°30' W 001°47'0 0.0
2017-Jul-17 07:58N 57°30' W 001°47'0 0.1
2017-Jul-17 07:30N 57°30' W 001°47'4 7.8
2017-Jul-17 07:00N 57°28' W 001°41'  
Track history (hours):
 
Tides and Currents Weather Stations Pressure Air Temp Water Temp Dewpoint Dewpoint Depression Visibility Wind Speed Wind Dir Waves Ship Positions

Normand Flipper

Last reported at 2017-Jul-23 15:25 UTC. Time now 2017-Jul-23 22:43 UTC.
Position N 57°26' W 001°36'.

Length 89 m; draft 4.9 m.

Type: Other ship. MMSI: 566522000.

Date/timePositionNaut miles runAvg speedWind from/ knotsBaromVisibWave heightAir tempDewpointWater temp
2017-Jul-23 15:25N 57°26' W 001°36'4 9.9
2017-Jul-23 15:00N 57°28' W 001°43'3 5.4
2017-Jul-23 14:31N 57°30' W 001°47'0 0.0
2017-Jul-23 14:00N 57°30' W 001°47'0 0.0
2017-Jul-23 13:30N 57°30' W 001°47'0 0.0
2017-Jul-23 13:01N 57°30' W 001°47'0 0.0
2017-Jul-23 12:28N 57°30' W 001°47'0 0.0
2017-Jul-23 12:00N 57°30' W 001°47'0 0.0
2017-Jul-23 11:28N 57°30' W 001°47'0 0.0
2017-Jul-23 11:01N 57°30' W 001°47'0 0.0
2017-Jul-23 10:31N 57°30' W 001°47'0 0.0
2017-Jul-23 10:00N 57°30' W 001°47'0 0.0
2017-Jul-23 09:31N 57°30' W 001°47'0 0.0
2017-Jul-23 09:00N 57°30' W 001°47'0 0.0
2017-Jul-23 08:30N 57°30' W 001°47'0 0.0
2017-Jul-23 08:00N 57°30' W 001°47'0 0.0
2017-Jul-23 07:31N 57°30' W 001°47'0 0.0
2017-Jul-23 06:54N 57°30' W 001°47'0 0.0
2017-Jul-23 06:30N 57°30' W 001°47'0 0.0
2017-Jul-23 06:01N 57°30' W 001°47'0 0.0
2017-Jul-23 05:31N 57°30' W 001°47'0 0.0
2017-Jul-23 05:00N 57°30' W 001°47'0 0.0
2017-Jul-23 04:30N 57°30' W 001°47'0 0.0
2017-Jul-23 04:01N 57°30' W 001°47'0 0.0
2017-Jul-23 03:31N 57°30' W 001°47'0 0.0
2017-Jul-23 03:00N 57°30' W 001°47'0 0.0
2017-Jul-23 02:30N 57°30' W 001°47'0 0.0
2017-Jul-23 02:00N 57°30' W 001°47'0 0.0
2017-Jul-23 01:18N 57°30' W 001°47'0 0.0
2017-Jul-23 01:00N 57°30' W 001°47'0 0.0
2017-Jul-23 00:30N 57°30' W 001°47'0 0.0
2017-Jul-23 00:01N 57°30' W 001°47'0 0.0
2017-Jul-22 23:27N 57°30' W 001°47'0 0.0
2017-Jul-22 23:00N 57°30' W 001°47'0 0.0
2017-Jul-22 22:30N 57°30' W 001°47'0 0.0
2017-Jul-22 22:00N 57°30' W 001°47'0 0.0
2017-Jul-22 21:30N 57°30' W 001°47'0 0.0
2017-Jul-22 20:57N 57°30' W 001°47'0 0.0
2017-Jul-22 20:30N 57°30' W 001°47'0 0.0
2017-Jul-22 20:01N 57°30' W 001°47'2 3.6
2017-Jul-22 19:31N 57°30' W 001°44'3 5.5
2017-Jul-22 19:01N 57°32' W 001°40'2 0.2
2017-Jul-22 08:57N 57°33' W 001°37'410.1
2017-Jul-22 08:31N 57°31' W 001°44'2 4.4
2017-Jul-22 08:01N 57°30' W 001°47'0 0.0
2017-Jul-22 07:31N 57°30' W 001°47'0 0.0
2017-Jul-22 06:59N 57°30' W 001°47'0 0.0
2017-Jul-22 06:26N 57°30' W 001°47'0 0.0
2017-Jul-22 05:59N 57°30' W 001°47'0 0.0
2017-Jul-22 05:28N 57°30' W 001°47'0 0.0
2017-Jul-22 04:58N 57°30' W 001°47'0 0.0
2017-Jul-22 04:28N 57°30' W 001°47'0 0.0
2017-Jul-22 03:59N 57°30' W 001°47'0 0.0
2017-Jul-22 03:29N 57°30' W 001°47'0 0.0
2017-Jul-22 02:58N 57°30' W 001°47'0 0.0
2017-Jul-22 02:29N 57°30' W 001°47'0 0.0
2017-Jul-22 02:00N 57°30' W 001°47'0 0.7
2017-Jul-22 01:31N 57°30' W 001°47'2 4.1
2017-Jul-22 01:00N 57°29' W 001°43'0 0.1
2017-Jul-22 00:30N 57°29' W 001°43'0 0.0
2017-Jul-22 00:00N 57°29' W 001°43'0 0.0
2017-Jul-21 23:30N 57°29' W 001°43'0 0.0
2017-Jul-21 23:00N 57°29' W 001°43'0 0.1
2017-Jul-21 22:30N 57°29' W 001°43'0 0.0
2017-Jul-21 22:00N 57°29' W 001°43'0 0.0
2017-Jul-21 21:30N 57°29' W 001°43'0 0.0
2017-Jul-21 21:00N 57°29' W 001°43'0 0.0
2017-Jul-21 20:30N 57°29' W 001°43'0 0.0
2017-Jul-21 20:00N 57°29' W 001°43'0 0.0
2017-Jul-21 19:30N 57°29' W 001°43'0 0.0
2017-Jul-21 19:00N 57°29' W 001°43'0 0.0
2017-Jul-21 18:30N 57°29' W 001°43'0 0.0
2017-Jul-21 18:00N 57°29' W 001°43'0 0.0
2017-Jul-21 17:30N 57°29' W 001°43'0 0.0
2017-Jul-21 17:00N 57°29' W 001°43'0 0.0
2017-Jul-21 16:30N 57°29' W 001°43'0 0.0
2017-Jul-21 16:00N 57°29' W 001°43'0 0.0
2017-Jul-21 15:30N 57°29' W 001°43'0 0.0
2017-Jul-21 15:00N 57°29' W 001°43'0 0.0
2017-Jul-21 14:30N 57°29' W 001°43'0 0.0
2017-Jul-21 14:00N 57°29' W 001°43'0 0.0
2017-Jul-21 13:30N 57°29' W 001°43'0 0.0
2017-Jul-21 13:00N 57°29' W 001°43'0 0.0
2017-Jul-21 12:30N 57°29' W 001°43'0 0.0
2017-Jul-21 12:00N 57°29' W 001°43'0 0.0
2017-Jul-21 11:30N 57°29' W 001°43'0 0.0
2017-Jul-21 10:59N 57°29' W 001°43'0 0.0
2017-Jul-21 10:30N 57°29' W 001°43'0 0.8
2017-Jul-21 10:00N 57°29' W 001°44'2 3.9
2017-Jul-21 09:30N 57°30' W 001°47'0 0.0
2017-Jul-21 08:54N 57°30' W 001°47'0 0.0
2017-Jul-21 08:30N 57°30' W 001°47'0 0.0
2017-Jul-21 07:57N 57°30' W 001°47'0 0.0
2017-Jul-21 07:30N 57°30' W 001°47'0 0.0
2017-Jul-21 06:57N 57°30' W 001°47'0 0.0
2017-Jul-21 06:30N 57°30' W 001°47'0 0.0
2017-Jul-21 05:54N 57°30' W 001°47'0 0.0
2017-Jul-21 05:27N 57°30' W 001°47'0 0.0
2017-Jul-21 04:48N 57°30' W 001°47'0 0.0
2017-Jul-21 04:30N 57°30' W 001°47'0 0.0
2017-Jul-21 04:00N 57°30' W 001°47'2 4.1
2017-Jul-21 03:29N 57°29' W 001°43'1 2.6
2017-Jul-21 03:00N 57°29' W 001°41'0 0.5
2017-Jul-21 02:30N 57°29' W 001°41'0 0.0
2017-Jul-21 01:59N 57°29' W 001°41'92 2.7
2017-Jul-19 15:16N 57°11' E 001°06'0 0.0
2017-Jul-19 14:50N 57°11' E 001°06'0 0.0
2017-Jul-19 13:06N 57°11' E 001°06'0 0.0
2017-Jul-19 13:00N 57°11' E 001°06'36 2.3
2017-Jul-18 21:27N 57°17' E 000°01'612.7
2017-Jul-18 21:00N 57°18' W 000°09'612.8
2017-Jul-18 20:30N 57°19' W 000°21'1912.9
2017-Jul-18 19:02N 57°23' W 000°55'112.8
2017-Jul-18 18:59N 57°23' W 000°56'2012.8
2017-Jul-18 17:24N 57°28' W 001°33'512.8
2017-Jul-18 17:00N 57°29' W 001°42'3 5.4
2017-Jul-18 16:30N 57°30' W 001°47'0 0.0
2017-Jul-18 15:58N 57°30' W 001°47'0 0.0
2017-Jul-18 15:28N 57°30' W 001°47'0 0.0
2017-Jul-18 14:58N 57°30' W 001°47'0 0.0
2017-Jul-18 13:55N 57°30' W 001°47'0 0.0
2017-Jul-18 13:28N 57°30' W 001°47'0 0.0
2017-Jul-18 12:58N 57°30' W 001°47'0 0.0
2017-Jul-18 12:28N 57°30' W 001°47'0 0.0
2017-Jul-18 11:55N 57°30' W 001°47'0 0.0
2017-Jul-18 11:28N 57°30' W 001°47'0 0.0
2017-Jul-18 10:58N 57°30' W 001°47'0 0.0
2017-Jul-18 10:28N 57°30' W 001°47'0 0.0
2017-Jul-18 09:58N 57°30' W 001°47'0 0.0
2017-Jul-18 09:28N 57°30' W 001°47'1 1.2
2017-Jul-18 08:58N 57°30' W 001°46'0 0.0
2017-Jul-18 08:28N 57°30' W 001°46'0 0.0
2017-Jul-18 07:58N 57°30' W 001°46'0 0.0
2017-Jul-18 07:28N 57°30' W 001°46'0 0.0
2017-Jul-18 06:58N 57°30' W 001°46'0 0.0
2017-Jul-18 06:28N 57°30' W 001°46'0 0.0
2017-Jul-18 05:58N 57°30' W 001°46'0 0.0
2017-Jul-18 05:28N 57°30' W 001°46'0 0.0
2017-Jul-18 04:58N 57°30' W 001°46'0 0.0
2017-Jul-18 04:28N 57°30' W 001°46'0 0.0
2017-Jul-18 03:58N 57°30' W 001°46'0 0.0
2017-Jul-18 03:28N 57°30' W 001°46'0 0.0
2017-Jul-18 02:58N 57°30' W 001°46'0 0.0
2017-Jul-18 02:28N 57°30' W 001°46'0 0.0
2017-Jul-18 01:58N 57°30' W 001°46'0 0.0
2017-Jul-18 01:28N 57°30' W 001°46'0 0.0
2017-Jul-18 00:58N 57°30' W 001°46'0 0.0
2017-Jul-18 00:28N 57°30' W 001°46'0 0.0
2017-Jul-17 23:58N 57°30' W 001°46'0 0.0
2017-Jul-17 23:28N 57°30' W 001°46'0 0.0
2017-Jul-17 22:58N 57°30' W 001°46'0 0.0
2017-Jul-17 22:28N 57°30' W 001°46'0 0.0
2017-Jul-17 21:58N 57°30' W 001°46'0 0.0
2017-Jul-17 21:28N 57°30' W 001°46'0 0.0
2017-Jul-17 20:58N 57°30' W 001°46'0 0.0
2017-Jul-17 20:25N 57°30' W 001°46'0 0.0
2017-Jul-17 19:55N 57°30' W 001°46'0 0.0
2017-Jul-17 19:28N 57°30' W 001°46'0 0.0
2017-Jul-17 18:58N 57°30' W 001°46'0 0.0
2017-Jul-17 18:28N 57°30' W 001°46'0 0.0
2017-Jul-17 17:58N 57°30' W 001°46'0 0.3
2017-Jul-17 17:31N 57°30' W 001°47'0 0.9
2017-Jul-17 17:00N 57°30' W 001°47'0 0.0
2017-Jul-17 16:28N 57°30' W 001°47'0 0.0
2017-Jul-17 15:58N 57°30' W 001°47'0 0.0
2017-Jul-17 15:28N 57°30' W 001°47'0 0.0
2017-Jul-17 14:58N 57°30' W 001°47'0 0.0
2017-Jul-17 14:22N 57°30' W 001°47'0 0.0
2017-Jul-17 13:58N 57°30' W 001°47'0 0.0
2017-Jul-17 13:22N 57°30' W 001°47'0 0.0
2017-Jul-17 12:58N 57°30' W 001°47'0 0.0
2017-Jul-17 12:28N 57°30' W 001°47'0 0.0
2017-Jul-17 11:58N 57°30' W 001°47'0 0.0
2017-Jul-17 11:28N 57°30' W 001°47'0 0.0
2017-Jul-17 10:58N 57°30' W 001°47'0 0.0
2017-Jul-17 10:28N 57°30' W 001°47'0 0.0
2017-Jul-17 09:58N 57°30' W 001°47'0 0.0
2017-Jul-17 09:28N 57°30' W 001°47'0 0.0
2017-Jul-17 08:58N 57°30' W 001°47'0 0.0
2017-Jul-17 08:28N 57°30' W 001°47'0 0.0
2017-Jul-17 07:58N 57°30' W 001°47'0 0.1
2017-Jul-17 07:30N 57°30' W 001°47'4 7.8
2017-Jul-17 07:00N 57°28' W 001°41'  

Dump ship's entire track history